Time;durP1;ratioP1;P1;durP2;ratioP2;P2;SDS_P1;SDS_P2;PMS_P1;PMS_P2;Temp;Humidity;BMP_temperature;BMP_pressure;BME280_temperature;BME280_humidity;BME280_pressure;Samples;Min_cycle;Max_cycle;Signal;HPM_P1;HPM_P2
2022/11/27 00:09:29;;;;;;;34.47;18.23;;;5.60;99.90;;;;;;21092998;28;20235;-74
2022/11/27 00:19:30;;;;;;;42.83;18.73;;;5.50;99.90;;;;;;21092380;28;20250;-74
2022/11/27 00:29:32;;;;;;;37.37;17.20;;;5.50;99.90;;;;;;21091349;28;20646;-76
2022/11/27 00:39:34;;;;;;;69.43;18.40;;;5.50;99.90;;;;;;21090223;28;20232;-75
2022/11/27 00:49:35;;;;;;;76.37;18.67;;;5.30;99.90;;;;;;21023078;28;20258;-75
2022/11/27 00:59:37;;;;;;;32.93;17.07;;;5.30;99.90;;;;;;21005094;28;20252;-76
2022/11/27 01:09:39;;;;;;;57.20;16.50;;;5.20;99.90;;;;;;21003983;28;20265;-76
2022/11/27 01:19:40;;;;;;;93.93;16.07;;;5.10;99.90;;;;;;21003807;28;20248;-74
2022/11/27 01:29:42;;;;;;;72.90;15.73;;;5.00;99.90;;;;;;21002882;28;20199;-76
2022/11/27 01:39:44;;;;;;;69.77;14.77;;;4.90;99.90;;;;;;21001994;28;20603;-75
2022/11/27 01:49:51;;;;;;;50.30;13.80;;;4.90;99.90;;;;;;21001548;28;20203;-76
2022/11/27 01:59:55;;;;;;;30.93;14.03;;;4.70;99.90;;;;;;21000195;28;20233;-75
2022/11/27 02:09:57;;;;;;;55.37;14.20;;;4.80;99.90;;;;;;20999144;28;20229;-76
2022/11/27 02:20:26;;;;;;;33.37;13.80;;;4.90;99.90;;;;;;20980579;28;20231;-75
2022/11/27 02:30:35;;;;;;;107.50;15.23;;;4.70;99.90;;;;;;20998376;28;20204;-74
2022/11/27 02:40:57;;;;;;;106.17;15.10;;;4.60;99.90;;;;;;20997036;28;20239;-75
2022/11/27 02:51:01;;;;;;;60.53;14.83;;;4.60;99.90;;;;;;20996596;28;20256;-75
2022/11/27 03:01:05;;;;;;;119.57;14.90;;;4.60;99.90;;;;;;20996355;28;20690;-75
2022/11/27 03:11:13;;;;;;;54.80;14.60;;;4.60;99.90;;;;;;20993958;28;20246;-75
2022/11/27 03:21:36;;;;;;;26.33;13.10;;;4.70;99.90;;;;;;20995088;28;20288;-76
2022/11/27 03:31:39;;;;;;;67.67;13.53;;;4.70;99.90;;;;;;21003735;28;20272;-74
2022/11/27 03:42:05;;;;;;;53.03;15.40;;;4.70;99.90;;;;;;21011308;28;20643;-74
2022/11/27 03:52:11;;;;;;;41.03;14.73;;;4.70;99.90;;;;;;21010446;28;20803;-74
2022/11/27 04:02:14;;;;;;;63.60;14.00;;;4.60;99.90;;;;;;21010078;28;20666;-75
2022/11/27 04:12:15;;;;;;;56.40;13.67;;;4.60;99.90;;;;;;21008689;28;20236;-74
2022/11/27 04:22:17;;;;;;;53.70;14.07;;;4.50;99.90;;;;;;21008143;28;20266;-76
2022/11/27 04:32:19;;;;;;;27.07;12.87;;;4.70;99.90;;;;;;21007664;28;20235;-76
2022/11/27 04:42:21;;;;;;;54.67;12.73;;;4.80;99.90;;;;;;21005839;28;20212;-75
2022/11/27 04:52:22;;;;;;;39.77;12.03;;;4.80;99.90;;;;;;21005742;28;20231;-75
2022/11/27 05:02:24;;;;;;;64.27;13.20;;;4.80;99.90;;;;;;21005539;28;20226;-75
2022/11/27 05:12:26;;;;;;;50.53;12.53;;;4.80;99.90;;;;;;21004224;28;20232;-75
2022/11/27 05:22:28;;;;;;;41.10;11.23;;;;;;;;;;21003563;28;20238;-75
2022/11/27 05:32:30;;;;;;;17.13;9.80;;;;;;;;;;21002945;28;20231;-74
2022/11/27 05:42:32;;;;;;;23.77;10.30;;;4.70;99.90;;;;;;20984272;28;20199;-76
2022/11/27 05:52:33;;;;;;;38.67;10.63;;;4.40;99.90;;;;;;20999821;28;20235;-74
2022/11/27 06:02:35;;;;;;;27.87;10.53;;;4.40;99.90;;;;;;21008608;28;20252;-79
2022/11/27 06:12:37;;;;;;;15.07;9.50;;;4.40;99.90;;;;;;21047178;28;20241;-76
2022/11/27 06:22:38;;;;;;;19.23;9.47;;;4.40;99.90;;;;;;21035417;28;20211;-77
2022/11/27 06:32:40;;;;;;;15.17;9.83;;;4.40;99.90;;;;;;20998109;28;20227;-75
2022/11/27 06:42:42;;;;;;;16.00;9.67;;;4.40;99.90;;;;;;21039456;28;20216;-77
2022/11/27 06:52:44;;;;;;;14.00;9.10;;;4.40;99.90;;;;;;21018127;28;20230;-75
2022/11/27 07:02:45;;;;;;;16.73;9.47;;;4.30;99.90;;;;;;21073675;28;20202;-77
2022/11/27 07:12:47;;;;;;;17.93;9.13;;;;;;;;;;21064273;28;20235;-76
2022/11/27 07:22:50;;;;;;;13.57;8.80;;;4.40;99.80;;;;;;21072669;28;20210;-74
2022/11/27 07:32:52;;;;;;;18.97;9.47;;;4.30;99.70;;;;;;21054303;28;20713;-78
2022/11/27 07:42:53;;;;;;;17.10;10.57;;;4.40;99.80;;;;;;21054096;28;20650;-77
2022/11/27 07:52:55;;;;;;;14.23;9.20;;;4.40;99.60;;;;;;20990600;28;20218;-76
2022/11/27 08:11:44;;;;;;;16.43;10.63;;;4.40;99.40;;;;;;21228156;27;20560;-74
2022/11/27 08:21:46;;;;;;;18.57;10.67;;;;;;;;;;21228807;28;20228;-72
2022/11/27 08:31:48;;;;;;;23.20;11.37;;;4.40;99.40;;;;;;21229169;28;20197;-72
2022/11/27 08:41:50;;;;;;;20.20;11.80;;;4.40;99.40;;;;;;21228503;28;20198;-72
2022/11/27 08:51:51;;;;;;;19.00;10.93;;;4.60;99.20;;;;;;21227927;27;20209;-70
2022/11/27 09:01:53;;;;;;;18.17;11.47;;;4.70;99.20;;;;;;21226802;27;20198;-71
2022/11/27 09:11:55;;;;;;;21.77;12.20;;;4.70;99.10;;;;;;21226162;27;20233;-73
2022/11/27 09:21:57;;;;;;;19.40;11.80;;;4.80;99.00;;;;;;21175776;28;20210;-73
2022/11/27 09:31:58;;;;;;;20.83;11.70;;;4.80;98.90;;;;;;21169627;28;20671;-71
2022/11/27 09:42:03;;;;;;;18.33;10.60;;;4.90;99.00;;;;;;21166052;28;20198;-71
2022/11/27 09:52:37;;;;;;;14.17;9.50;;;5.10;98.80;;;;;;21163479;28;20203;-78
2022/11/27 10:02:41;;;;;;;14.00;9.17;;;5.20;98.90;;;;;;21164779;28;20237;-74
2022/11/27 10:13:28;;;;;;;14.30;8.90;;;5.40;99.00;;;;;;21163640;28;20232;-76
2022/11/27 10:23:53;;;;;;;14.37;9.20;;;5.40;98.80;;;;;;21163862;28;20230;-75
2022/11/27 10:34:19;;;;;;;16.77;9.53;;;5.50;98.80;;;;;;21162627;28;20199;-72
2022/11/27 10:44:30;;;;;;;16.50;9.97;;;5.90;98.90;;;;;;21162201;28;20231;-70
2022/11/27 10:54:37;;;;;;;18.27;11.40;;;6.00;98.70;;;;;;21160679;28;20607;-77
2022/11/27 11:04:39;;;;;;;31.43;16.27;;;6.10;98.90;;;;;;21084772;28;20251;-72
2022/11/27 11:14:50;;;;;;;25.33;14.17;;;6.40;99.20;;;;;;21075786;28;20231;-72
2022/11/27 11:24:53;;;;;;;15.37;10.97;;;6.50;99.00;;;;;;21074346;28;20703;-71
2022/11/27 11:34:56;;;;;;;17.23;10.33;;;6.70;98.90;;;;;;21074023;28;20613;-75
2022/11/27 11:45:04;;;;;;;15.77;9.80;;;6.80;98.90;;;;;;21110770;28;20572;-75
2022/11/27 11:55:12;;;;;;;16.13;10.13;;;7.00;99.00;;;;;;21156926;28;20208;-72
2022/11/27 12:05:23;;;;;;;13.47;9.27;;;7.40;99.10;;;;;;21156143;28;20230;-75
2022/11/27 12:15:27;;;;;;;16.13;9.23;;;7.50;99.40;;;;;;21160783;28;20212;-74
2022/11/27 12:25:36;;;;;;;13.33;9.07;;;7.90;98.40;;;;;;21161383;28;20291;-75
2022/11/27 12:35:51;;;;;;;12.07;8.67;;;7.80;98.50;;;;;;21161532;28;20255;-73
2022/11/27 12:46:05;;;;;;;12.00;8.10;;;8.10;98.40;;;;;;21160039;28;20233;-77
2022/11/27 12:56:23;;;;;;;14.10;8.40;;;8.10;98.20;;;;;;21172877;28;20266;-75
2022/11/27 13:06:28;;;;;;;11.70;8.13;;;8.10;98.10;;;;;;21175953;28;20777;-78
2022/11/27 13:16:47;;;;;;;12.30;7.27;;;8.10;98.40;;;;;;21175590;28;20206;-76
2022/11/27 13:27:07;;;;;;;11.70;7.20;;;8.00;97.50;;;;;;21174500;28;20316;-74
2022/11/27 13:37:32;;;;;;;12.20;7.23;;;7.90;97.40;;;;;;21174073;28;20202;-75
2022/11/27 13:47:42;;;;;;;14.80;7.40;;;7.80;97.30;;;;;;21114496;28;20694;-77
2022/11/27 13:57:51;;;;;;;10.27;7.07;;;7.60;97.30;;;;;;21087574;28;20214;-74
2022/11/27 14:07:54;;;;;;;13.33;7.77;;;7.70;97.30;;;;;;21085941;28;20242;-72
2022/11/27 14:18:16;;;;;;;10.90;7.03;;;7.60;97.40;;;;;;21086831;28;20208;-76
2022/11/27 14:28:26;;;;;;;10.83;6.63;;;7.70;97.50;;;;;;21085707;28;20602;-76
2022/11/27 14:38:28;;;;;;;10.87;7.60;;;7.60;97.50;;;;;;21084833;28;20566;-75
2022/11/27 14:48:41;;;;;;;11.40;7.67;;;7.50;97.50;;;;;;21083796;28;20294;-76
2022/11/27 14:58:50;;;;;;;13.10;8.10;;;7.40;97.70;;;;;;21083600;28;20600;-76
2022/11/27 15:08:52;;;;;;;12.27;8.17;;;7.40;98.00;;;;;;21082367;28;20238;-75
2022/11/27 15:19:26;;;;;;;12.77;8.20;;;7.30;97.90;;;;;;21080999;28;20248;-75
2022/11/27 15:29:35;;;;;;;16.60;9.40;;;7.20;98.10;;;;;;21081335;28;20238;-75
2022/11/27 15:39:50;;;;;;;14.07;9.27;;;7.20;98.40;;;;;;21080148;28;20664;-75
2022/11/27 15:49:52;;;;;;;14.87;9.43;;;7.10;98.30;;;;;;21061762;28;20725;-75
2022/11/27 15:59:54;;;;;;;14.77;8.60;;;7.10;98.40;;;;;;21079677;28;20552;-74
2022/11/27 16:09:55;;;;;;;15.10;9.10;;;7.10;98.50;;;;;;21099787;28;20301;-77
2022/11/27 16:19:57;;;;;;;13.67;8.90;;;7.10;98.60;;;;;;21137848;28;20198;-71
2022/11/27 16:29:59;;;;;;;12.50;9.43;;;7.10;98.50;;;;;;21173236;28;20235;-75
2022/11/27 16:40:00;;;;;;;13.17;9.20;;;7.10;98.50;;;;;;21165448;28;20226;-75
2022/11/27 16:50:03;;;;;;;14.47;9.60;;;7.10;98.60;;;;;;21093059;28;20244;-74
2022/11/27 17:00:05;;;;;;;13.90;9.67;;;7.10;98.60;;;;;;21092886;28;20258;-70
2022/11/27 17:10:07;;;;;;;16.40;10.27;;;7.10;98.60;;;;;;21091433;28;20708;-71
2022/11/27 17:20:10;;;;;;;17.07;10.63;;;7.10;98.60;;;;;;21151918;28;20200;-73
2022/11/27 17:30:12;;;;;;;15.93;10.40;;;7.10;98.60;;;;;;21174961;28;20285;-76
2022/11/27 17:40:13;;;;;;;14.77;10.23;;;7.00;98.60;;;;;;21173377;28;20254;-75
2022/11/27 17:50:15;;;;;;;17.00;10.10;;;7.00;98.60;;;;;;21173087;28;20650;-69
2022/11/27 18:00:17;;;;;;;17.43;11.13;;;7.00;98.80;;;;;;21172674;28;20643;-73
2022/11/27 18:10:19;;;;;;;16.70;10.97;;;7.00;98.80;;;;;;21171372;28;20248;-70
2022/11/27 18:20:21;;;;;;;17.17;10.30;;;7.00;98.60;;;;;;21105156;28;20197;-73
2022/11/27 18:30:23;;;;;;;15.17;10.33;;;6.90;98.50;;;;;;21085834;28;20649;-73
2022/11/27 18:40:25;;;;;;;14.53;10.17;;;7.00;98.50;;;;;;21084615;28;20221;-72
2022/11/27 18:50:27;;;;;;;14.80;10.17;;;6.90;98.50;;;;;;21083868;28;20241;-72
2022/11/27 19:00:30;;;;;;;24.47;14.93;;;6.90;98.50;;;;;;21082420;28;20218;-75
2022/11/27 19:14:47;;;;;;;15.73;11.20;;;6.90;98.40;;;;;;20999055;28;20569;-71
2022/11/27 19:24:49;;;;;;;16.83;11.43;;;6.80;98.30;;;;;;21064824;28;20220;-71
2022/11/27 19:34:50;;;;;;;17.90;11.67;;;6.80;98.20;;;;;;21064260;28;20227;-71
2022/11/27 19:44:54;;;;;;;15.93;11.17;;;6.80;98.10;;;;;;21062937;28;20213;-70
2022/11/27 19:54:56;;;;;;;14.97;10.73;;;6.90;98.10;;;;;;21063655;28;20213;-71
2022/11/27 20:04:58;;;;;;;15.60;10.93;;;6.80;98.00;;;;;;21061629;28;20620;-73
2022/11/27 20:15:01;;;;;;;16.90;11.47;;;6.80;98.00;;;;;;21040806;28;20254;-74
2022/11/27 20:25:02;;;;;;;15.97;11.50;;;6.80;98.00;;;;;;20927553;28;20574;-74
2022/11/27 20:35:20;;;;;;;15.73;11.13;;;6.80;97.90;;;;;;20921098;28;20201;-71
2022/11/27 20:45:22;;;;;;;18.80;12.13;;;6.90;98.00;;;;;;20920453;28;20299;-72
2022/11/27 20:55:23;;;;;;;19.80;12.30;;;6.90;97.90;;;;;;20918042;28;20227;-73
2022/11/27 21:05:25;;;;;;;18.57;12.93;;;6.90;97.90;;;;;;20918301;28;20601;-72
2022/11/27 21:15:26;;;;;;;16.97;12.40;;;6.90;97.90;;;;;;20941619;28;20582;-72
2022/11/27 21:25:28;;;;;;;17.53;12.57;;;6.90;97.90;;;;;;20999682;28;20234;-72
2022/11/27 21:35:30;;;;;;;17.53;12.30;;;6.90;97.80;;;;;;20998188;28;20615;-74
2022/11/27 21:45:36;;;;;;;17.20;12.27;;;6.90;97.80;;;;;;20998258;28;20226;-74
2022/11/27 21:55:42;;;;;;;19.43;12.50;;;6.90;97.80;;;;;;20997181;28;20297;-73
2022/11/27 22:05:44;;;;;;;17.63;12.57;;;;;;;;;;20996128;28;20229;-73
2022/11/27 22:15:46;;;;;;;20.17;12.43;;;6.90;97.70;;;;;;20969380;28;20267;-73
2022/11/27 22:25:47;;;;;;;17.60;11.80;;;7.00;97.70;;;;;;20914171;28;20238;-72
2022/11/27 22:35:50;;;;;;;17.43;12.30;;;;;;;;;;20914004;28;20268;-72
2022/11/27 22:45:51;;;;;;;22.40;12.60;;;6.90;97.60;;;;;;20913419;28;20242;-73
2022/11/27 22:55:53;;;;;;;18.13;12.77;;;6.80;97.70;;;;;;20913000;28;20206;-69
2022/11/27 23:05:55;;;;;;;19.00;13.43;;;6.90;98.00;;;;;;20912254;28;20238;-72
2022/11/27 23:15:56;;;;;;;21.57;14.43;;;6.70;97.60;;;;;;20940114;28;20239;-71
2022/11/27 23:26:04;;;;;;;21.17;13.03;;;6.70;97.70;;;;;;20994615;28;20262;-71
2022/11/27 23:36:06;;;;;;;21.33;13.10;;;6.80;97.80;;;;;;20994234;28;20240;-71
2022/11/27 23:46:11;;;;;;;21.83;13.77;;;6.40;97.50;;;;;;20994189;28;20237;-72
2022/11/27 23:56:16;;;;;;;21.03;13.73;;;6.90;97.70;;;;;;21000604;28;20555;-72
